N12872 KBUR-KLAS
Flight info
| Callsign | N12872 |
|---|---|
| Flight time | 0h 42m |
| Altitude | 29000 |
| Route | SLAPP2 MISEN RNDRZ4 |
| Aircraft | CL60/M-SADE3FGHIJ3J4J7P2RWXY/HB1D1 |
Departure
| Time | 2026-05-04 00:41 |
|---|---|
| Airport | Hollywood Burbank/Bob Hope Airport (KBUR) |
Arrival
| Time | 2026-05-04 01:23 |
|---|---|
| Airport | Harry Reid International Airport (KLAS) |
| Time | Latitude | Longitude | Altitude | Speed | Heading |
|---|---|---|---|---|---|
| 2026-05-04 00:07 | 34.20020 | -118.35880 | 725 ft | 0 kts | 280° |
| 2026-05-04 00:34 | 34.20023 | -118.35892 | 725 ft | 4 kts | 292° |
| 2026-05-04 00:34 | 34.20029 | -118.35905 | 725 ft | 1 kts | 299° |
| 2026-05-04 00:35 | 34.20056 | -118.35924 | 727 ft | 6 kts | 339° |
| 2026-05-04 00:35 | 34.20108 | -118.35947 | 729 ft | 8 kts | 345° |
| 2026-05-04 00:35 | 34.20170 | -118.35964 | 731 ft | 6 kts | 348° |
| 2026-05-04 00:35 | 34.20217 | -118.35977 | 733 ft | 7 kts | 349° |
| 2026-05-04 00:36 | 34.20264 | -118.35957 | 734 ft | 9 kts | 54° |
| 2026-05-04 00:36 | 34.20310 | -118.35906 | 735 ft | 10 kts | 346° |
| 2026-05-04 00:36 | 34.20382 | -118.35926 | 738 ft | 10 kts | 347° |
| 2026-05-04 00:36 | 34.20456 | -118.35947 | 741 ft | 10 kts | 347° |
| 2026-05-04 00:37 | 34.20527 | -118.35967 | 745 ft | 9 kts | 347° |
| 2026-05-04 00:37 | 34.20594 | -118.35985 | 748 ft | 10 kts | 347° |
| 2026-05-04 00:37 | 34.20666 | -118.36005 | 750 ft | 10 kts | 347° |
| 2026-05-04 00:37 | 34.20736 | -118.36024 | 754 ft | 9 kts | 347° |
| 2026-05-04 00:38 | 34.20806 | -118.36043 | 757 ft | 10 kts | 347° |
| 2026-05-04 00:38 | 34.20879 | -118.36063 | 760 ft | 10 kts | 347° |
| 2026-05-04 00:38 | 34.20952 | -118.36084 | 762 ft | 11 kts | 347° |
| 2026-05-04 00:38 | 34.21031 | -118.36105 | 765 ft | 9 kts | 347° |
| 2026-05-04 00:39 | 34.21090 | -118.36121 | 767 ft | 8 kts | 347° |
| 2026-05-04 00:39 | 34.21144 | -118.36137 | 768 ft | 9 kts | 347° |
| 2026-05-04 00:39 | 34.21184 | -118.36142 | 769 ft | 4 kts | 17° |
| 2026-05-04 00:39 | 34.21214 | -118.36111 | 770 ft | 8 kts | 65° |
| 2026-05-04 00:40 | 34.21220 | -118.36050 | 770 ft | 6 kts | 120° |
| 2026-05-04 00:40 | 34.21108 | -118.36014 | 767 ft | 46 kts | 166° |
| 2026-05-04 00:40 | 34.20460 | -118.35832 | 741 ft | 130 kts | 167° |
| 2026-05-04 00:40 | 34.19538 | -118.35548 | 1006 ft | 143 kts | 165° |
| 2026-05-04 00:41 | 34.18467 | -118.35289 | 1693 ft | 175 kts | 177° |
| 2026-05-04 00:41 | 34.17286 | -118.35638 | 2934 ft | 190 kts | 210° |
| 2026-05-04 00:41 | 34.16432 | -118.36605 | 3831 ft | 157 kts | 225° |
| 2026-05-04 00:41 | 34.15745 | -118.37549 | 4116 ft | 150 kts | 237° |
| 2026-05-04 00:42 | 34.15341 | -118.38721 | 4165 ft | 156 kts | 254° |
| 2026-05-04 00:42 | 34.15322 | -118.40083 | 4422 ft | 179 kts | 279° |
| 2026-05-04 00:42 | 34.15933 | -118.41478 | 5116 ft | 208 kts | 310° |
| 2026-05-04 00:42 | 34.17221 | -118.42329 | 5828 ft | 228 kts | 348° |
| 2026-05-04 00:43 | 34.18806 | -118.42642 | 6677 ft | 237 kts | 352° |
| 2026-05-04 00:43 | 34.20465 | -118.42891 | 7520 ft | 247 kts | 352° |
| 2026-05-04 00:43 | 34.22210 | -118.43175 | 8179 ft | 263 kts | 352° |
| 2026-05-04 00:43 | 34.24050 | -118.43479 | 8975 ft | 273 kts | 352° |
| 2026-05-04 00:44 | 34.25954 | -118.43789 | 9797 ft | 280 kts | 351° |
| 2026-05-04 00:44 | 34.27895 | -118.44083 | 10595 ft | 287 kts | 351° |
| 2026-05-04 00:44 | 34.29890 | -118.44088 | 11367 ft | 295 kts | 12° |
| 2026-05-04 00:44 | 34.31776 | -118.43095 | 12071 ft | 304 kts | 29° |
| 2026-05-04 00:45 | 34.33634 | -118.41824 | 12721 ft | 312 kts | 28° |
| 2026-05-04 00:45 | 34.35536 | -118.40537 | 12995 ft | 314 kts | 28° |
| 2026-05-04 00:45 | 34.37442 | -118.39250 | 13022 ft | 314 kts | 28° |
| 2026-05-04 00:45 | 34.39342 | -118.37968 | 13014 ft | 313 kts | 28° |
| 2026-05-04 00:46 | 34.41234 | -118.36690 | 13015 ft | 312 kts | 28° |
| 2026-05-04 00:46 | 34.43188 | -118.35372 | 13381 ft | 334 kts | 27° |
| 2026-05-04 00:46 | 34.45194 | -118.34018 | 14448 ft | 338 kts | 26° |
| 2026-05-04 00:46 | 34.47186 | -118.32488 | 14930 ft | 338 kts | 36° |
| 2026-05-04 00:47 | 34.49052 | -118.30630 | 15399 ft | 355 kts | 38° |
| 2026-05-04 00:47 | 34.50909 | -118.28759 | 16627 ft | 353 kts | 36° |
| 2026-05-04 00:47 | 34.52779 | -118.26880 | 17705 ft | 355 kts | 36° |
| 2026-05-04 00:47 | 34.54698 | -118.24955 | 18545 ft | 364 kts | 35° |
| 2026-05-04 00:48 | 34.56671 | -118.22976 | 18949 ft | 368 kts | 35° |
| 2026-05-04 00:48 | 34.58647 | -118.20988 | 19026 ft | 371 kts | 35° |
| 2026-05-04 00:48 | 34.60672 | -118.18955 | 19480 ft | 385 kts | 35° |
| 2026-05-04 00:48 | 34.62692 | -118.16922 | 20588 ft | 381 kts | 35° |
| 2026-05-04 00:49 | 34.64690 | -118.14794 | 21538 ft | 385 kts | 43° |
| 2026-05-04 00:49 | 34.66264 | -118.12199 | 22302 ft | 393 kts | 62° |
| 2026-05-04 00:49 | 34.67173 | -118.09062 | 22983 ft | 398 kts | 79° |
| 2026-05-04 00:49 | 34.67733 | -118.05745 | 23620 ft | 404 kts | 81° |
| 2026-05-04 00:50 | 34.68306 | -118.02351 | 24286 ft | 410 kts | 81° |
| 2026-05-04 00:50 | 34.68888 | -117.98910 | 24886 ft | 417 kts | 81° |
| 2026-05-04 00:50 | 34.69298 | -117.95415 | 25413 ft | 422 kts | 89° |
| 2026-05-04 00:50 | 34.69513 | -117.91817 | 25954 ft | 428 kts | 89° |
| 2026-05-04 00:51 | 34.69729 | -117.88208 | 26478 ft | 434 kts | 89° |
| 2026-05-04 00:51 | 34.69947 | -117.84553 | 26981 ft | 440 kts | 89° |
| 2026-05-04 00:51 | 34.70169 | -117.80818 | 27463 ft | 446 kts | 89° |
| 2026-05-04 00:51 | 34.70394 | -117.77026 | 27922 ft | 453 kts | 89° |
| 2026-05-04 00:52 | 34.70581 | -117.73211 | 28365 ft | 458 kts | 90° |
| 2026-05-04 00:52 | 34.70731 | -117.69327 | 28773 ft | 464 kts | 90° |
| 2026-05-04 00:52 | 34.70882 | -117.65372 | 29031 ft | 475 kts | 90° |
| 2026-05-04 00:52 | 34.71038 | -117.61292 | 29035 ft | 491 kts | 90° |
| 2026-05-04 00:53 | 34.71197 | -117.57083 | 29026 ft | 504 kts | 90° |
| 2026-05-04 00:53 | 34.71372 | -117.52834 | 29023 ft | 517 kts | 88° |
| 2026-05-04 00:53 | 34.72036 | -117.48492 | 29029 ft | 529 kts | 73° |
| 2026-05-04 00:54 | 34.74340 | -117.39857 | 29003 ft | 542 kts | 71° |
| 2026-05-04 00:54 | 34.76675 | -117.31091 | 28991 ft | 541 kts | 72° |
| 2026-05-04 00:55 | 34.78966 | -117.22456 | 28976 ft | 539 kts | 72° |
| 2026-05-04 00:55 | 34.81262 | -117.13769 | 28962 ft | 539 kts | 72° |
| 2026-05-04 00:56 | 34.83552 | -117.05074 | 28934 ft | 538 kts | 72° |
| 2026-05-04 00:56 | 34.85812 | -116.96461 | 28906 ft | 537 kts | 72° |
| 2026-05-04 00:57 | 34.88080 | -116.87789 | 28880 ft | 536 kts | 72° |
| 2026-05-04 00:57 | 34.90316 | -116.79208 | 28880 ft | 535 kts | 72° |
| 2026-05-04 00:58 | 34.93096 | -116.70836 | 28882 ft | 531 kts | 54° |
| 2026-05-04 00:58 | 34.97262 | -116.63435 | 28879 ft | 529 kts | 51° |
| 2026-05-04 00:59 | 35.01438 | -116.56046 | 28880 ft | 530 kts | 51° |
| 2026-05-04 00:59 | 35.05585 | -116.48689 | 28882 ft | 530 kts | 51° |
| 2026-05-04 01:00 | 35.09753 | -116.41299 | 28879 ft | 529 kts | 50° |
| 2026-05-04 01:00 | 35.14513 | -116.34815 | 28418 ft | 509 kts | 41° |
| 2026-05-04 01:00 | 35.16929 | -116.31699 | 27835 ft | 499 kts | 42° |
| 2026-05-04 01:01 | 35.19274 | -116.28670 | 27226 ft | 491 kts | 42° |
| 2026-05-04 01:01 | 35.21599 | -116.25663 | 26585 ft | 483 kts | 42° |
| 2026-05-04 01:01 | 35.23845 | -116.22659 | 25956 ft | 477 kts | 44° |
| 2026-05-04 01:01 | 35.26031 | -116.19675 | 25331 ft | 469 kts | 45° |
| 2026-05-04 01:02 | 35.28204 | -116.16705 | 24710 ft | 463 kts | 45° |
| 2026-05-04 01:02 | 35.30321 | -116.13811 | 24099 ft | 457 kts | 45° |
| 2026-05-04 01:02 | 35.32418 | -116.10940 | 23494 ft | 453 kts | 45° |
| 2026-05-04 01:02 | 35.34496 | -116.08094 | 22894 ft | 448 kts | 46° |
| 2026-05-04 01:03 | 35.36553 | -116.05273 | 22301 ft | 443 kts | 46° |
| 2026-05-04 01:03 | 35.38599 | -116.02464 | 21710 ft | 438 kts | 47° |
| 2026-05-04 01:03 | 35.40615 | -115.99693 | 21130 ft | 433 kts | 47° |
| 2026-05-04 01:03 | 35.42596 | -115.96968 | 20557 ft | 427 kts | 47° |
| 2026-05-04 01:04 | 35.44562 | -115.94260 | 20012 ft | 421 kts | 48° |
| 2026-05-04 01:04 | 35.46485 | -115.91611 | 19457 ft | 415 kts | 48° |
| 2026-05-04 01:04 | 35.48363 | -115.89021 | 18901 ft | 403 kts | 49° |
| 2026-05-04 01:04 | 35.50189 | -115.86500 | 18382 ft | 391 kts | 49° |
| 2026-05-04 01:05 | 35.51959 | -115.84055 | 17861 ft | 376 kts | 50° |
| 2026-05-04 01:05 | 35.53662 | -115.81702 | 17380 ft | 362 kts | 50° |
| 2026-05-04 01:05 | 35.55286 | -115.79454 | 16969 ft | 347 kts | 50° |
| 2026-05-04 01:05 | 35.56847 | -115.77294 | 16646 ft | 334 kts | 50° |
| 2026-05-04 01:06 | 35.58366 | -115.75187 | 16226 ft | 332 kts | 50° |
| 2026-05-04 01:06 | 35.59915 | -115.73062 | 15791 ft | 329 kts | 49° |
| 2026-05-04 01:06 | 35.61439 | -115.71008 | 15531 ft | 321 kts | 49° |
| 2026-05-04 01:06 | 35.62916 | -115.69016 | 15516 ft | 314 kts | 49° |
| 2026-05-04 01:07 | 35.64384 | -115.67032 | 15522 ft | 323 kts | 49° |
| 2026-05-04 01:07 | 35.65924 | -115.64951 | 15269 ft | 322 kts | 49° |
| 2026-05-04 01:07 | 35.67411 | -115.62940 | 15139 ft | 320 kts | 49° |
| 2026-05-04 01:07 | 35.68910 | -115.60913 | 14962 ft | 319 kts | 49° |
| 2026-05-04 01:08 | 35.70408 | -115.58886 | 14804 ft | 319 kts | 49° |
| 2026-05-04 01:08 | 35.71894 | -115.56873 | 14640 ft | 318 kts | 49° |
| 2026-05-04 01:08 | 35.73535 | -115.55074 | 14476 ft | 318 kts | 33° |
| 2026-05-04 01:08 | 35.75459 | -115.53709 | 14315 ft | 318 kts | 29° |
| 2026-05-04 01:09 | 35.77364 | -115.52387 | 14157 ft | 317 kts | 30° |
| 2026-05-04 01:09 | 35.79272 | -115.51056 | 13995 ft | 316 kts | 30° |
| 2026-05-04 01:09 | 35.81177 | -115.49725 | 13837 ft | 315 kts | 30° |
| 2026-05-04 01:09 | 35.83075 | -115.48398 | 13678 ft | 315 kts | 30° |
| 2026-05-04 01:10 | 35.84999 | -115.47051 | 13514 ft | 314 kts | 30° |
| 2026-05-04 01:10 | 35.86868 | -115.45742 | 13353 ft | 313 kts | 30° |
| 2026-05-04 01:10 | 35.88761 | -115.44415 | 13191 ft | 312 kts | 30° |
| 2026-05-04 01:10 | 35.90647 | -115.43092 | 13030 ft | 311 kts | 30° |
| 2026-05-04 01:11 | 35.92522 | -115.41785 | 12855 ft | 311 kts | 30° |
| 2026-05-04 01:11 | 35.94413 | -115.40468 | 12578 ft | 311 kts | 30° |
| 2026-05-04 01:11 | 35.96298 | -115.39154 | 12221 ft | 309 kts | 30° |
| 2026-05-04 01:11 | 35.98160 | -115.37855 | 11959 ft | 303 kts | 30° |
| 2026-05-04 01:12 | 35.99831 | -115.36359 | 11692 ft | 300 kts | 48° |
| 2026-05-04 01:12 | 36.00969 | -115.34262 | 11407 ft | 293 kts | 71° |
| 2026-05-04 01:12 | 36.01411 | -115.31853 | 11134 ft | 284 kts | 92° |
| 2026-05-04 01:12 | 36.01340 | -115.29431 | 10852 ft | 278 kts | 98° |
| 2026-05-04 01:13 | 36.01223 | -115.27084 | 10647 ft | 273 kts | 98° |
| 2026-05-04 01:13 | 36.01109 | -115.24755 | 10410 ft | 268 kts | 98° |
| 2026-05-04 01:13 | 36.00998 | -115.22479 | 10188 ft | 262 kts | 98° |
| 2026-05-04 01:13 | 36.00890 | -115.20269 | 9966 ft | 256 kts | 98° |
| 2026-05-04 01:14 | 36.00783 | -115.18099 | 9751 ft | 250 kts | 98° |
| 2026-05-04 01:14 | 36.00677 | -115.15964 | 9531 ft | 245 kts | 98° |
| 2026-05-04 01:14 | 36.00573 | -115.13880 | 9321 ft | 239 kts | 98° |
| 2026-05-04 01:14 | 36.00471 | -115.11867 | 9116 ft | 235 kts | 98° |
| 2026-05-04 01:15 | 36.00369 | -115.09856 | 8917 ft | 234 kts | 98° |
| 2026-05-04 01:15 | 36.00265 | -115.07828 | 8704 ft | 234 kts | 98° |
| 2026-05-04 01:15 | 36.00164 | -115.05842 | 8495 ft | 233 kts | 98° |
| 2026-05-04 01:15 | 36.00062 | -115.03854 | 8269 ft | 232 kts | 98° |
| 2026-05-04 01:16 | 35.99963 | -115.01849 | 8062 ft | 232 kts | 98° |
| 2026-05-04 01:16 | 35.99934 | -114.99867 | 7854 ft | 232 kts | 96° |
| 2026-05-04 01:16 | 35.99924 | -114.97911 | 7616 ft | 227 kts | 96° |
| 2026-05-04 01:16 | 35.99911 | -114.95958 | 7262 ft | 227 kts | 96° |
| 2026-05-04 01:17 | 36.00040 | -114.94039 | 7098 ft | 221 kts | 78° |
| 2026-05-04 01:17 | 36.00715 | -114.92402 | 7062 ft | 208 kts | 54° |
| 2026-05-04 01:17 | 36.01788 | -114.91248 | 6713 ft | 210 kts | 30° |
| 2026-05-04 01:17 | 36.03140 | -114.90685 | 6430 ft | 200 kts | 4° |
| 2026-05-04 01:18 | 36.04481 | -114.90790 | 6086 ft | 190 kts | 340° |
| 2026-05-04 01:18 | 36.05646 | -114.91416 | 5757 ft | 179 kts | 319° |
| 2026-05-04 01:18 | 36.06528 | -114.92426 | 5386 ft | 170 kts | 300° |
| 2026-05-04 01:18 | 36.07077 | -114.93666 | 5085 ft | 157 kts | 282° |
| 2026-05-04 01:19 | 36.07286 | -114.94941 | 4966 ft | 154 kts | 267° |
| 2026-05-04 01:19 | 36.07322 | -114.96272 | 4820 ft | 155 kts | 265° |
| 2026-05-04 01:19 | 36.07332 | -114.97553 | 4643 ft | 143 kts | 263° |
| 2026-05-04 01:19 | 36.07325 | -114.98779 | 4293 ft | 142 kts | 264° |
| 2026-05-04 01:20 | 36.07312 | -114.99994 | 4044 ft | 146 kts | 262° |
| 2026-05-04 01:20 | 36.07283 | -115.01252 | 3923 ft | 143 kts | 263° |
| 2026-05-04 01:20 | 36.07278 | -115.02486 | 3752 ft | 142 kts | 265° |
| 2026-05-04 01:20 | 36.07307 | -115.03709 | 3522 ft | 142 kts | 266° |
| 2026-05-04 01:21 | 36.07348 | -115.04928 | 3293 ft | 144 kts | 265° |
| 2026-05-04 01:21 | 36.07370 | -115.06145 | 3133 ft | 138 kts | 264° |
| 2026-05-04 01:21 | 36.07374 | -115.07322 | 2930 ft | 134 kts | 263° |
| 2026-05-04 01:21 | 36.07361 | -115.08462 | 2821 ft | 131 kts | 266° |
| 2026-05-04 01:22 | 36.07387 | -115.09561 | 2588 ft | 126 kts | 263° |
| 2026-05-04 01:22 | 36.07365 | -115.10661 | 2410 ft | 127 kts | 263° |
| 2026-05-04 01:22 | 36.07367 | -115.11746 | 2284 ft | 123 kts | 263° |
| 2026-05-04 01:22 | 36.07368 | -115.12788 | 2090 ft | 119 kts | 263° |
| 2026-05-04 01:23 | 36.07364 | -115.13742 | 2078 ft | 98 kts | 268° |
| 2026-05-04 01:23 | 36.07365 | -115.14370 | 2097 ft | 55 kts | 268° |
| 2026-05-04 01:23 | 36.07368 | -115.14759 | 2110 ft | 26 kts | 284° |
| 2026-05-04 01:23 | 36.07393 | -115.14858 | 2114 ft | 14 kts | 290° |
| 2026-05-04 01:24 | 36.07445 | -115.14995 | 2118 ft | 15 kts | 300° |
| 2026-05-04 01:24 | 36.07467 | -115.15042 | 2120 ft | 0 kts | 299° |
| 2026-05-04 01:25 | 36.07481 | -115.15075 | 2121 ft | 7 kts | 296° |
| 2026-05-04 01:25 | 36.07499 | -115.15133 | 2123 ft | 7 kts | 282° |
| 2026-05-04 01:25 | 36.07502 | -115.15200 | 2125 ft | 7 kts | 270° |
| 2026-05-04 01:25 | 36.07502 | -115.15271 | 2128 ft | 7 kts | 269° |
| 2026-05-04 01:26 | 36.07502 | -115.15334 | 2130 ft | 8 kts | 270° |
| 2026-05-04 01:26 | 36.07502 | -115.15429 | 2134 ft | 13 kts | 270° |
| 2026-05-04 01:26 | 36.07501 | -115.15559 | 2139 ft | 17 kts | 269° |
| 2026-05-04 01:26 | 36.07502 | -115.15703 | 2144 ft | 16 kts | 270° |
| 2026-05-04 01:27 | 36.07502 | -115.15829 | 2149 ft | 12 kts | 269° |
| 2026-05-04 01:27 | 36.07502 | -115.15928 | 2153 ft | 10 kts | 269° |
| 2026-05-04 01:27 | 36.07500 | -115.16041 | 2157 ft | 14 kts | 270° |
| 2026-05-04 01:27 | 36.07500 | -115.16162 | 2160 ft | 13 kts | 270° |
| 2026-05-04 01:28 | 36.07500 | -115.16291 | 2164 ft | 15 kts | 270° |
| 2026-05-04 01:28 | 36.07500 | -115.16415 | 2168 ft | 13 kts | 270° |
| 2026-05-04 01:28 | 36.07465 | -115.16503 | 2171 ft | 12 kts | 205° |
| 2026-05-04 01:28 | 36.07406 | -115.16538 | 2173 ft | 8 kts | 217° |
| 2026-05-04 01:29 | 36.07384 | -115.16599 | 2175 ft | 7 kts | 275° |
| 2026-05-04 01:29 | 36.07391 | -115.16620 | 2176 ft | 0 kts | 295° |
| 2026-05-04 01:29 | 36.07400 | -115.16644 | 2176 ft | 7 kts | 295° |
| 2026-05-04 01:29 | 36.07432 | -115.16729 | 2177 ft | 13 kts | 295° |
| 2026-05-04 01:30 | 36.07472 | -115.16835 | 2178 ft | 14 kts | 295° |
| 2026-05-04 01:30 | 36.07498 | -115.16904 | 2179 ft | 6 kts | 295° |
| 2026-05-04 01:30 | 36.07502 | -115.16915 | 2179 ft | 0 kts | 296° |
| 2026-05-04 01:32 | 36.07504 | -115.16920 | 2179 ft | 1 kts | 296° |
| 2026-05-04 01:32 | 36.07520 | -115.16959 | 2180 ft | 10 kts | 295° |
| 2026-05-04 01:32 | 36.07556 | -115.17049 | 2180 ft | 12 kts | 296° |
| 2026-05-04 01:33 | 36.07634 | -115.17106 | 2179 ft | 15 kts | 347° |
| 2026-05-04 01:33 | 36.07747 | -115.17121 | 2178 ft | 6 kts | 356° |
| 2026-05-04 01:33 | 36.07815 | -115.17116 | 2176 ft | 13 kts | 20° |
| 2026-05-04 01:33 | 36.07894 | -115.17069 | 2174 ft | 12 kts | 25° |
| 2026-05-04 01:34 | 36.07977 | -115.17022 | 2171 ft | 11 kts | 25° |
| 2026-05-04 01:34 | 36.08057 | -115.16977 | 2168 ft | 15 kts | 25° |
| 2026-05-04 01:34 | 36.08151 | -115.16924 | 2165 ft | 12 kts | 24° |
| 2026-05-04 01:34 | 36.08246 | -115.16869 | 2161 ft | 15 kts | 25° |
| 2026-05-04 01:35 | 36.08287 | -115.16845 | 2161 ft | 8 kts | 25° |
| 2026-05-04 01:35 | 36.08364 | -115.16801 | 2158 ft | 15 kts | 25° |
| 2026-05-04 01:35 | 36.08454 | -115.16749 | 2154 ft | 16 kts | 25° |
| 2026-05-04 01:35 | 36.08540 | -115.16702 | 2151 ft | 4 kts | 19° |
| 2026-05-04 01:36 | 36.08570 | -115.16728 | 2151 ft | 8 kts | 303° |
| 2026-05-04 01:36 | 36.08620 | -115.16753 | 2150 ft | 4 kts | 69° |
| 2026-05-04 01:36 | 36.08620 | -115.16747 | 2150 ft | 0 kts | 106° |